createdAt,value
2019-05-07T00:01:52.511Z,57.31
2019-05-07T00:04:38.820Z,57.56
2019-05-07T00:07:26.226Z,57.78
2019-05-07T00:10:13.663Z,57.99
2019-05-07T00:13:02.277Z,58.63
2019-05-07T00:15:49.802Z,58.98
2019-05-07T00:18:37.359Z,59.32
2019-05-07T00:21:24.995Z,59.39
2019-05-07T00:24:13.425Z,59.50
2019-05-07T00:27:02.824Z,59.30
2019-05-07T00:29:52.066Z,59.29
2019-05-07T00:32:39.342Z,59.16
2019-05-07T00:35:32.391Z,59.37
2019-05-07T00:38:22.484Z,59.69
2019-05-07T00:41:27.170Z,59.97
2019-05-07T00:44:15.321Z,59.27
2019-05-07T00:47:03.334Z,59.48
2019-05-07T00:49:52.245Z,59.29
2019-05-07T00:52:39.731Z,59.65
2019-05-07T00:55:27.311Z,59.64
2019-05-07T00:58:14.495Z,59.73
2019-05-07T01:01:02.589Z,60.38
2019-05-07T01:03:50.084Z,60.44
2019-05-07T01:06:37.769Z,60.66
2019-05-07T01:09:25.392Z,60.64
2019-05-07T01:12:12.924Z,60.76
2019-05-07T01:15:02.672Z,60.84
2019-05-07T01:17:49.390Z,60.63
2019-05-07T01:20:36.495Z,60.51
2019-05-07T01:23:23.563Z,60.44
2019-05-07T01:26:12.441Z,60.75
2019-05-07T01:29:02.451Z,60.67
2019-05-07T01:32:12.753Z,60.97
2019-05-07T01:35:04.191Z,61.03
2019-05-07T01:37:52.447Z,61.11
2019-05-07T01:40:40.037Z,61.30
2019-05-07T01:43:27.134Z,61.44
2019-05-07T01:46:14.743Z,61.43
2019-05-07T01:49:03.044Z,61.37
2019-05-07T01:51:50.308Z,60.93
2019-05-07T01:54:37.766Z,60.98
2019-05-07T01:57:25.277Z,61.02
2019-05-07T02:00:13.174Z,60.94
2019-05-07T02:03:08.069Z,61.11
2019-05-07T02:06:17.357Z,61.19
2019-05-07T02:09:27.752Z,61.36
2019-05-07T02:12:25.608Z,61.56
2019-05-07T02:15:12.723Z,61.72
2019-05-07T02:18:01.930Z,61.87
2019-05-07T02:20:49.169Z,61.81
2019-05-07T02:23:36.883Z,61.98
2019-05-07T02:26:24.729Z,61.83
2019-05-07T02:29:12.339Z,61.66
2019-05-07T02:32:00.126Z,61.83
2019-05-07T02:34:47.464Z,61.97
2019-05-07T02:37:48.701Z,62.12
2019-05-07T02:40:49.178Z,62.11
2019-05-07T02:43:36.781Z,62.06
2019-05-07T02:46:36.680Z,62.17
2019-05-07T02:49:39.706Z,62.57
2019-05-07T02:52:45.626Z,62.59
2019-05-07T02:55:36.943Z,62.97
2019-05-07T02:58:24.728Z,63.63
2019-05-07T03:01:13.790Z,63.73
2019-05-07T03:04:03.657Z,63.57
2019-05-07T03:06:54.029Z,64.04
2019-05-07T03:09:43.126Z,64.05
2019-05-07T03:12:29.283Z,64.04
2019-05-07T03:15:17.072Z,64.40
2019-05-07T03:18:04.764Z,64.26
2019-05-07T03:20:57.233Z,64.16
2019-05-07T03:24:19.203Z,63.82
2019-05-07T03:27:06.851Z,64.08
2019-05-07T03:30:04.517Z,64.33
2019-05-07T03:33:06.494Z,64.56
2019-05-07T03:35:56.230Z,64.66
2019-05-07T03:38:43.898Z,65.16
2019-05-07T03:41:33.351Z,65.30
2019-05-07T03:44:35.768Z,64.94
2019-05-07T03:47:32.935Z,65.22
2019-05-07T03:50:19.200Z,64.39
2019-05-07T03:53:06.632Z,64.74
2019-05-07T03:55:54.253Z,65.15
2019-05-07T03:58:43.336Z,64.17
2019-05-07T04:01:33.463Z,64.29
2019-05-07T04:04:22.794Z,64.54
2019-05-07T04:07:09.001Z,64.81
2019-05-07T04:09:56.389Z,64.60
2019-05-07T04:12:44.594Z,64.34
2019-05-07T04:15:33.175Z,64.30
2019-05-07T04:18:23.776Z,64.29
2019-05-07T04:21:09.944Z,64.30
2019-05-07T04:24:13.862Z,63.89
2019-05-07T04:27:07.453Z,63.71
2019-05-07T04:29:55.289Z,64.17
2019-05-07T04:32:47.787Z,65.24
2019-05-07T04:35:47.237Z,65.67
2019-05-07T04:38:34.710Z,64.10
2019-05-07T04:41:23.564Z,63.76
2019-05-07T04:44:13.819Z,63.88
2019-05-07T04:47:00.112Z,65.08
2019-05-07T04:49:47.916Z,65.17
2019-05-07T04:52:36.604Z,65.10
2019-05-07T04:55:24.083Z,63.89
2019-05-07T04:58:13.969Z,64.01
2019-05-07T05:01:03.227Z,63.40
2019-05-07T05:03:53.217Z,62.67
2019-05-07T05:06:42.399Z,61.36
2019-05-07T05:09:32.693Z,60.90
2019-05-07T05:12:22.453Z,59.95
2019-05-07T05:15:09.547Z,58.20
2019-05-07T05:17:57.207Z,55.23
2019-05-07T05:21:02.928Z,53.89
2019-05-07T05:24:01.844Z,52.26
2019-05-07T05:26:49.410Z,49.64
2019-05-07T05:29:38.257Z,47.08
2019-05-07T05:32:25.836Z,46.35
2019-05-07T05:35:13.554Z,44.65
2019-05-07T05:38:03.019Z,44.40
2019-05-07T05:40:52.102Z,44.22
2019-05-07T05:44:04.194Z,42.41
2019-05-07T05:46:52.542Z,41.18
2019-05-07T05:49:39.985Z,38.99
2019-05-07T05:52:37.236Z,36.90
2019-05-07T05:55:29.602Z,38.41
2019-05-07T05:58:28.679Z,36.87
2019-05-07T06:01:34.776Z,35.20
2019-05-07T06:04:32.954Z,35.03
2019-05-07T06:07:34.602Z,35.16
2019-05-07T06:10:39.732Z,34.77
2019-05-07T06:13:43.386Z,35.08
2019-05-07T06:16:36.737Z,34.73
2019-05-07T06:19:29.801Z,34.91
2019-05-07T06:22:34.006Z,34.88
2019-05-07T06:25:24.808Z,35.17
2019-05-07T06:28:12.632Z,36.17
2019-05-07T06:31:02.143Z,37.43
2019-05-07T06:33:52.215Z,38.96
2019-05-07T06:36:42.271Z,39.27
2019-05-07T06:39:34.490Z,38.77
2019-05-07T06:42:52.228Z,39.41
2019-05-07T06:45:58.096Z,39.10
2019-05-07T06:48:46.470Z,39.57
2019-05-07T06:51:33.976Z,40.49
2019-05-07T06:54:22.594Z,38.72
2019-05-07T06:57:12.902Z,36.16
2019-05-07T07:00:02.794Z,35.17
2019-05-07T07:02:56.097Z,34.75
2019-05-07T07:06:08.589Z,33.28
2019-05-07T07:09:02.007Z,31.25
2019-05-07T07:11:56.787Z,31.86
2019-05-07T07:14:44.347Z,30.08
2019-05-07T07:17:32.683Z,30.96
2019-05-07T07:20:21.821Z,28.98
2019-05-07T07:23:11.676Z,30.55
2019-05-07T07:25:59.238Z,31.58
2019-05-07T07:28:47.154Z,31.90
2019-05-07T07:31:38.604Z,32.41
2019-05-07T07:34:26.710Z,31.02
2019-05-07T07:37:32.100Z,29.99
2019-05-07T07:40:52.739Z,29.40
2019-05-07T07:43:41.933Z,30.12
2019-05-07T07:46:30.056Z,29.48
2019-05-07T07:49:17.367Z,28.50
2019-05-07T07:52:04.886Z,28.72
2019-05-07T07:54:52.892Z,30.12
2019-05-07T07:57:57.069Z,30.08
2019-05-07T08:01:02.829Z,28.46
2019-05-07T08:03:52.273Z,28.23
2019-05-07T08:06:41.832Z,27.91
2019-05-07T08:09:29.078Z,28.78
2019-05-07T08:12:18.585Z,28.13
2019-05-07T08:15:17.234Z,29.24
2019-05-07T08:17:56.875Z,29.23
2019-05-07T08:20:45.053Z,29.93
2019-05-07T08:23:32.662Z,30.08
2019-05-07T08:26:21.889Z,30.20
2019-05-07T08:29:11.767Z,30.37
2019-05-07T08:32:24.923Z,30.54
2019-05-07T08:35:18.763Z,30.23
2019-05-07T08:38:07.062Z,31.63
2019-05-07T08:40:55.067Z,32.27
2019-05-07T08:43:42.801Z,30.71
2019-05-07T08:46:42.635Z,32.05
2019-05-07T08:49:37.015Z,31.21
2019-05-07T08:52:19.439Z,31.41
2019-05-07T08:55:07.552Z,31.22
2019-05-07T08:57:55.779Z,32.32
2019-05-07T09:00:43.394Z,33.02
2019-05-07T09:03:43.488Z,33.52
2019-05-07T09:06:34.734Z,34.00
2019-05-07T09:09:22.472Z,35.32
2019-05-07T09:12:12.193Z,36.31
2019-05-07T09:14:59.365Z,33.36
2019-05-07T09:17:47.051Z,33.27
2019-05-07T09:20:34.426Z,35.88
2019-05-07T09:23:22.296Z,37.20
2019-05-07T09:26:13.051Z,36.58
2019-05-07T09:29:11.811Z,34.71
2019-05-07T09:32:17.789Z,34.96
2019-05-07T09:35:08.003Z,35.48
2019-05-07T09:37:55.770Z,35.24
2019-05-07T09:40:43.489Z,34.99
2019-05-07T09:43:32.478Z,35.28
2019-05-07T09:46:22.625Z,33.86
2019-05-07T09:49:11.910Z,32.55
2019-05-07T09:51:58.979Z,33.24
2019-05-07T09:54:47.110Z,32.90
2019-05-07T09:57:34.904Z,33.26
2019-05-07T10:00:25.127Z,33.19
2019-05-07T10:03:12.929Z,31.79
2019-05-07T10:06:02.242Z,31.27
2019-05-07T10:08:49.412Z,31.42
2019-05-07T10:11:45.620Z,31.76
2019-05-07T10:14:33.472Z,31.58
2019-05-07T10:17:39.868Z,32.34
2019-05-07T10:20:27.621Z,32.63
2019-05-07T10:23:22.860Z,31.91
2019-05-07T10:26:12.074Z,31.43
2019-05-07T10:28:59.266Z,31.89
2019-05-07T10:31:46.984Z,31.26
2019-05-07T10:34:34.623Z,31.33
2019-05-07T10:37:22.157Z,29.21
2019-05-07T10:40:12.295Z,30.11
2019-05-07T10:43:00.104Z,31.12
2019-05-07T10:45:55.420Z,32.60
2019-05-07T10:49:04.852Z,30.87
2019-05-07T10:51:54.743Z,32.22
2019-05-07T10:54:42.668Z,33.06
2019-05-07T10:57:30.023Z,32.20
2019-05-07T11:00:22.568Z,32.27
2019-05-07T11:03:12.486Z,32.20
2019-05-07T11:05:59.405Z,32.40
2019-05-07T11:08:47.065Z,32.66
2019-05-07T11:11:34.462Z,32.07
2019-05-07T11:14:21.840Z,33.33
2019-05-07T11:17:22.364Z,32.57
2019-05-07T11:20:12.151Z,31.68
2019-05-07T11:22:59.597Z,31.18
2019-05-07T11:25:46.625Z,32.15
2019-05-07T11:28:34.301Z,30.72
2019-05-07T11:31:22.355Z,31.13
2019-05-07T11:34:11.986Z,30.50
2019-05-07T11:36:59.371Z,31.02
2019-05-07T11:39:46.747Z,30.77
2019-05-07T11:43:04.899Z,30.30
2019-05-07T11:45:59.081Z,31.09
2019-05-07T11:48:53.140Z,32.15
2019-05-07T11:52:02.809Z,30.74
2019-05-07T11:54:50.056Z,31.54
2019-05-07T11:57:37.466Z,30.24
2019-05-07T12:00:33.537Z,29.00
2019-05-07T12:03:22.112Z,30.95
2019-05-07T12:06:09.887Z,30.11
2019-05-07T12:08:57.478Z,30.50
2019-05-07T12:11:45.154Z,29.55
2019-05-07T12:14:35.032Z,29.77
2019-05-07T12:17:22.383Z,27.46
2019-05-07T12:20:12.389Z,28.79
2019-05-07T12:22:59.520Z,28.73
2019-05-07T12:25:47.158Z,29.83
2019-05-07T12:28:34.794Z,26.82
2019-05-07T12:31:47.897Z,28.05
2019-05-07T12:34:45.632Z,26.85
2019-05-07T12:37:33.525Z,26.03
2019-05-07T12:40:22.397Z,26.90
2019-05-07T12:43:10.585Z,27.46
2019-05-07T12:45:58.240Z,27.63
2019-05-07T12:48:45.572Z,26.87
2019-05-07T12:51:38.500Z,26.62
2019-05-07T12:54:52.459Z,27.25
2019-05-07T12:57:42.029Z,26.49
2019-05-07T13:00:54.196Z,26.03
2019-05-07T13:03:54.222Z,27.03
2019-05-07T13:06:51.911Z,26.14
2019-05-07T13:09:39.473Z,26.84
2019-05-07T13:12:26.853Z,26.53
2019-05-07T13:15:24.927Z,26.12
2019-05-07T13:18:04.121Z,26.34
2019-05-07T13:20:51.935Z,27.08
2019-05-07T13:23:39.696Z,26.74
2019-05-07T13:26:27.649Z,26.87
2019-05-07T13:29:15.105Z,26.12
2019-05-07T13:32:03.920Z,25.36
2019-05-07T13:34:52.121Z,25.89
2019-05-07T13:37:44.034Z,25.86
2019-05-07T13:40:52.602Z,25.34
2019-05-07T13:44:02.924Z,25.49
2019-05-07T13:46:53.354Z,26.65
2019-05-07T13:49:42.764Z,27.79
2019-05-07T13:52:30.351Z,27.12
2019-05-07T13:55:17.711Z,26.01
2019-05-07T13:58:05.527Z,25.33
2019-05-07T14:01:12.094Z,25.29
2019-05-07T14:04:03.787Z,26.45
2019-05-07T14:06:48.899Z,26.63
2019-05-07T14:09:36.591Z,26.56
2019-05-07T14:12:24.581Z,26.01
2019-05-07T14:15:12.671Z,25.54
2019-05-07T14:18:02.222Z,24.34
2019-05-07T14:20:49.643Z,24.80
2019-05-07T14:23:37.428Z,24.90
2019-05-07T14:26:24.550Z,25.24
2019-05-07T14:29:12.828Z,26.11
2019-05-07T14:32:21.895Z,25.86
2019-05-07T14:35:22.562Z,26.04
2019-05-07T14:38:23.460Z,26.24
2019-05-07T14:43:48.098Z,26.34
2019-05-07T14:46:50.111Z,25.63
2019-05-07T14:49:24.602Z,25.23
2019-05-07T14:52:12.362Z,25.41
2019-05-07T14:54:59.975Z,24.94
2019-05-07T14:57:47.835Z,25.82
2019-05-07T15:00:35.458Z,26.29
2019-05-07T15:03:23.584Z,26.44
2019-05-07T15:06:12.612Z,26.68
2019-05-07T15:09:00.378Z,25.97
2019-05-07T15:11:48.029Z,27.03
2019-05-07T15:14:35.648Z,27.37
2019-05-07T15:17:41.836Z,27.09
2019-05-07T15:20:29.292Z,27.41
2019-05-07T15:23:22.545Z,27.27
2019-05-07T15:26:12.655Z,27.17
2019-05-07T15:29:08.035Z,27.37
2019-05-07T15:32:03.387Z,27.60
2019-05-07T15:34:52.713Z,27.06
2019-05-07T15:37:42.555Z,27.48
2019-05-07T15:40:29.546Z,27.05
2019-05-07T15:43:17.245Z,27.06
2019-05-07T15:46:04.799Z,27.15
2019-05-07T15:48:52.604Z,27.29
2019-05-07T15:51:41.898Z,27.64
2019-05-07T15:54:29.640Z,27.10
2019-05-07T15:57:22.469Z,27.42
2019-05-07T16:00:12.588Z,27.71
2019-05-07T16:03:05.772Z,27.93
2019-05-07T16:05:53.595Z,27.60
2019-05-07T16:08:49.094Z,27.90
2019-05-07T16:11:35.171Z,27.64
2019-05-07T16:14:27.140Z,27.95
2019-05-07T16:17:24.506Z,27.70
2019-05-07T16:20:14.775Z,28.24
2019-05-07T16:23:13.984Z,28.12
2019-05-07T16:25:52.821Z,28.50
2019-05-07T16:28:41.727Z,28.28
2019-05-07T16:31:30.138Z,27.99
2019-05-07T16:34:18.543Z,28.64
2019-05-07T16:37:07.546Z,27.78
2019-05-07T16:39:55.652Z,29.20
2019-05-07T16:42:43.491Z,28.94
2019-05-07T16:45:31.163Z,29.62
2019-05-07T16:48:18.625Z,29.49
2019-05-07T16:51:06.535Z,29.08
2019-05-07T16:53:53.902Z,29.66
2019-05-07T16:57:02.963Z,29.69
2019-05-07T16:59:51.668Z,29.80
2019-05-07T17:02:43.184Z,29.91
2019-05-07T17:05:32.070Z,29.89
2019-05-07T17:08:33.708Z,30.10
2019-05-07T17:11:22.665Z,30.13
2019-05-07T17:14:10.253Z,30.02
2019-05-07T17:16:57.611Z,30.13
2019-05-07T17:19:45.833Z,30.78
2019-05-07T17:22:33.850Z,30.43
2019-05-07T17:25:36.882Z,30.06
2019-05-07T17:28:24.447Z,30.12
2019-05-07T17:31:12.516Z,30.59
2019-05-07T17:34:02.113Z,30.52
2019-05-07T17:36:49.430Z,30.42
2019-05-07T17:39:37.183Z,31.36
2019-05-07T17:42:25.268Z,31.90
2019-05-07T17:45:13.094Z,31.98
2019-05-07T17:48:02.932Z,32.09
2019-05-07T17:51:18.322Z,32.64
2019-05-07T17:54:05.803Z,32.03
2019-05-07T17:56:54.459Z,32.38
2019-05-07T17:59:42.202Z,32.76
2019-05-07T18:02:37.773Z,33.12
2019-05-07T18:05:25.207Z,33.47
2019-05-07T18:08:12.769Z,33.66
2019-05-07T18:11:02.254Z,34.22
2019-05-07T18:13:51.831Z,35.83
2019-05-07T18:17:13.903Z,36.73
2019-05-07T18:20:02.487Z,36.53
2019-05-07T18:22:52.030Z,36.35
2019-05-07T18:25:39.405Z,36.60
2019-05-07T18:28:29.370Z,37.11
2019-05-07T18:31:18.114Z,37.57
2019-05-07T18:34:05.620Z,37.21
2019-05-07T18:36:53.216Z,37.63
2019-05-07T18:39:42.657Z,37.32
2019-05-07T18:42:29.334Z,36.93
2019-05-07T18:45:16.828Z,36.93
2019-05-07T18:48:04.346Z,36.61
2019-05-07T18:50:52.339Z,36.85
2019-05-07T18:53:39.564Z,36.41
2019-05-07T18:56:27.089Z,36.35
2019-05-07T18:59:15.569Z,37.15
2019-05-07T19:02:03.005Z,37.90
2019-05-07T19:04:51.947Z,38.47
2019-05-07T19:07:41.556Z,38.25
2019-05-07T19:10:28.699Z,38.55
2019-05-07T19:13:16.212Z,38.17
2019-05-07T19:16:03.386Z,38.12
2019-05-07T19:18:50.445Z,38.59
2019-05-07T19:21:38.331Z,38.61
2019-05-07T19:24:26.436Z,38.59
2019-05-07T19:27:14.181Z,38.79
2019-05-07T19:30:01.878Z,37.66
2019-05-07T19:32:52.019Z,39.50
2019-05-07T19:35:38.905Z,39.56
2019-05-07T19:38:26.604Z,38.85
2019-05-07T19:41:14.311Z,38.36
2019-05-07T19:44:02.105Z,38.57
2019-05-07T19:46:49.412Z,38.75
2019-05-07T19:49:36.871Z,38.39
2019-05-07T19:52:24.285Z,38.18
2019-05-07T19:55:12.119Z,38.13
2019-05-07T19:58:03.426Z,37.52
2019-05-07T20:00:56.853Z,37.88
2019-05-07T20:03:40.372Z,37.51
2019-05-07T20:06:28.201Z,37.34
2019-05-07T20:09:17.754Z,37.57
2019-05-07T20:12:08.005Z,37.97
2019-05-07T20:14:54.638Z,37.79
2019-05-07T20:17:42.338Z,37.63
2019-05-07T20:20:29.734Z,37.70
2019-05-07T20:23:17.264Z,38.48
2019-05-07T20:26:04.738Z,38.66
2019-05-07T20:28:52.779Z,38.49
2019-05-07T20:31:42.333Z,38.96
2019-05-07T20:34:33.242Z,38.99
2019-05-07T20:37:21.998Z,38.92
2019-05-07T20:40:09.401Z,39.12
2019-05-07T20:42:57.570Z,39.04
2019-05-07T20:45:45.072Z,38.87
2019-05-07T20:48:33.118Z,39.39
2019-05-07T20:51:22.913Z,39.83
2019-05-07T20:54:32.647Z,39.61
2019-05-07T20:57:26.107Z,39.65
2019-05-07T21:00:23.007Z,39.91
2019-05-07T21:03:20.425Z,40.30
2019-05-07T21:06:08.357Z,40.70
2019-05-07T21:08:55.978Z,41.16
2019-05-07T21:11:43.440Z,41.98
2019-05-07T21:14:32.510Z,43.10
2019-05-07T21:17:22.675Z,44.17
2019-05-07T21:20:12.107Z,44.39
2019-05-07T21:23:02.931Z,44.78
2019-05-07T21:25:52.720Z,45.13
2019-05-07T21:28:43.152Z,45.40
2019-05-07T21:31:32.170Z,45.61
2019-05-07T21:34:20.210Z,45.77
2019-05-07T21:37:09.017Z,46.16
2019-05-07T21:39:57.261Z,46.37
2019-05-07T21:42:44.952Z,46.23
2019-05-07T21:45:33.649Z,46.91
2019-05-07T21:48:26.866Z,46.97
2019-05-07T21:51:15.170Z,46.94
2019-05-07T21:54:33.908Z,46.80
2019-05-07T21:57:33.641Z,47.32
2019-05-07T22:00:26.210Z,47.71
2019-05-07T22:03:15.757Z,47.92
2019-05-07T22:06:03.505Z,47.80
2019-05-07T22:08:54.454Z,48.03
2019-05-07T22:11:42.716Z,48.08
2019-05-07T22:14:32.693Z,48.15
2019-05-07T22:17:21.799Z,47.88
2019-05-07T22:20:08.725Z,47.81
2019-05-07T22:22:56.519Z,48.11
2019-05-07T22:25:47.825Z,48.35
2019-05-07T22:28:36.452Z,48.76
2019-05-07T22:31:30.842Z,48.95
2019-05-07T22:34:27.281Z,49.52
2019-05-07T22:37:15.055Z,49.40
2019-05-07T22:40:02.745Z,49.66
2019-05-07T22:42:50.106Z,49.71
2019-05-07T22:45:37.683Z,49.96
2019-05-07T22:48:24.988Z,49.94
2019-05-07T22:51:12.400Z,50.06
2019-05-07T22:53:59.829Z,50.16
2019-05-07T22:57:05.141Z,50.14
2019-05-07T22:59:52.309Z,50.58
2019-05-07T23:02:39.962Z,51.02
2019-05-07T23:05:27.620Z,51.12
2019-05-07T23:08:14.801Z,50.80
2019-05-07T23:11:02.866Z,50.54
2019-05-07T23:13:54.402Z,50.58
2019-05-07T23:16:39.639Z,50.89
2019-05-07T23:19:27.339Z,51.09
2019-05-07T23:22:15.060Z,50.87
2019-05-07T23:25:02.645Z,51.21
2019-05-07T23:27:49.844Z,51.60
2019-05-07T23:30:37.892Z,51.15
2019-05-07T23:33:25.306Z,51.13
2019-05-07T23:36:13.017Z,51.06
2019-05-07T23:39:02.547Z,50.89
2019-05-07T23:41:54.642Z,50.85
2019-05-07T23:44:42.146Z,50.70
2019-05-07T23:47:31.722Z,50.77
2019-05-07T23:50:18.350Z,50.48
2019-05-07T23:53:06.207Z,50.87
2019-05-07T23:55:53.790Z,50.92
2019-05-07T23:58:42.030Z,51.61
